BUR weather

Bob Hope Airport
Burbank, California, United States

Public forecast

Using degrees Fahrenheit for public forecast. Weather courtesy of forecast.io.

Current aviation weather report (METAR) for Bob Hope Airport

Retrieved 2019/10/20 20:53 UTC (16 minutes ago):

KBUR 202053Z AUTO 31012KT 10SM CLR 30/01 A2987 RMK AO2 SLP100 T03000011 58016

Aviation forecast (TAF) for Bob Hope Airport

Retrieved 2019/10/20 18:39 UTC (3 hours ago):

TAF KBUR 201736Z 2018/2118 35014KT P6SM SKC FM202200 17008KT P6SM SKC FM210200 33006KT P6SM SKC FM211600 14005KT P6SM SKC